Nada, Texas
Current Conditions -  °F | °C
As of 1:55 PM on Saturday 20 Dec 2014 (Local Time) from KELA Reporting Station
Overcast Overcast  
Wind Chill: 53°   Ceiling: 1000
Heat Index: 53°   Visibility: 10mi
Dew Point: 50°   Wind: 7mph
Humidity: 88%   Direction: 20°NNE
Pressure: 30.16"   Gusts: NA
Location:  29.41°N, 96.39°W
Report Text: KELA 201955Z AUTO 02006KT 10SM OVC010 12/10 A3016 RMK AO2 T01190100
Loading
Personal Weather Stations






























Interactive Weather Map New forecast layout! Learn more

10-Day Weather Forecast

Advertisements
Track Severe Weather on mobile